createdAt,value
2017-12-28T00:01:10.561Z,12.50
2017-12-28T00:03:38.740Z,12.80
2017-12-28T00:06:06.873Z,12.52
2017-12-28T00:08:35.801Z,12.90
2017-12-28T00:11:03.934Z,12.02
2017-12-28T00:13:32.096Z,13.05
2017-12-28T00:16:00.229Z,13.05
2017-12-28T00:18:28.389Z,12.95
2017-12-28T00:20:56.535Z,11.95
2017-12-28T00:23:24.694Z,13.40
2017-12-28T00:25:52.826Z,12.82
2017-12-28T00:28:20.977Z,12.23
2017-12-28T00:30:49.104Z,12.00
2017-12-28T00:33:17.266Z,12.40
2017-12-28T00:35:45.421Z,12.15
2017-12-28T00:38:13.569Z,13.98
2017-12-28T00:40:41.710Z,12.85
2017-12-28T00:43:09.871Z,12.88
2017-12-28T00:45:38.003Z,12.18
2017-12-28T00:48:06.154Z,13.07
2017-12-28T00:50:35.051Z,12.20
2017-12-28T00:53:03.218Z,13.80
2017-12-28T00:55:32.109Z,12.23
2017-12-28T00:58:00.254Z,13.98
2017-12-28T01:00:28.404Z,12.90
2017-12-28T01:02:56.541Z,12.90
2017-12-28T01:05:24.693Z,13.30
2017-12-28T01:07:52.842Z,13.07
2017-12-28T01:10:20.992Z,11.20
2017-12-28T01:12:49.120Z,13.02
2017-12-28T01:15:18.043Z,14.50
2017-12-28T01:17:46.170Z,13.95
2017-12-28T01:20:14.324Z,15.65
2017-12-28T01:22:42.454Z,13.68
2017-12-28T01:25:10.606Z,15.55
2017-12-28T01:27:39.501Z,15.30
2017-12-28T01:30:07.652Z,15.82
2017-12-28T01:32:36.559Z,14.98
2017-12-28T01:35:04.716Z,14.00
2017-12-28T01:37:32.845Z,14.30
2017-12-28T01:40:00.998Z,15.65
2017-12-28T01:42:29.139Z,17.15
2017-12-28T01:44:57.344Z,16.62
2017-12-28T01:47:25.472Z,14.68
2017-12-28T01:49:53.633Z,15.65
2017-12-28T01:52:21.760Z,17.23
2017-12-28T01:54:49.943Z,16.58
2017-12-28T01:57:18.078Z,17.30
2017-12-28T01:59:46.199Z,15.52
2017-12-28T02:02:14.361Z,15.68
2017-12-28T02:04:42.503Z,14.50
2017-12-28T02:07:11.417Z,14.40
2017-12-28T02:09:39.549Z,14.95
2017-12-28T02:12:07.696Z,15.23
2017-12-28T02:14:35.832Z,16.75
2017-12-28T02:17:03.989Z,13.75
2017-12-28T02:19:32.150Z,14.75
2017-12-28T02:22:00.301Z,13.15
2017-12-28T02:24:28.436Z,14.32
2017-12-28T02:26:56.593Z,14.38
2017-12-28T02:29:24.722Z,16.27
2017-12-28T02:31:52.885Z,13.02
2017-12-28T02:34:21.036Z,14.70
2017-12-28T02:36:49.194Z,15.25
2017-12-28T02:39:17.329Z,14.05
2017-12-28T02:41:45.473Z,14.20
2017-12-28T02:44:13.610Z,14.45
2017-12-28T02:46:41.773Z,15.05
2017-12-28T02:49:09.913Z,14.57
2017-12-28T02:51:38.066Z,14.52
2017-12-28T02:54:06.238Z,13.80
2017-12-28T02:56:34.412Z,13.18
2017-12-28T02:59:02.550Z,12.77
2017-12-28T03:01:31.442Z,12.65
2017-12-28T03:03:59.597Z,15.10
2017-12-28T03:06:28.493Z,13.13
2017-12-28T03:08:56.654Z,16.75
2017-12-28T03:11:24.789Z,15.30
2017-12-28T03:13:52.958Z,15.25
2017-12-28T03:16:21.089Z,14.35
2017-12-28T03:18:49.240Z,14.80
2017-12-28T03:21:17.382Z,15.95
2017-12-28T03:23:45.533Z,15.15
2017-12-28T03:26:13.669Z,15.95
2017-12-28T03:28:41.826Z,16.65
2017-12-28T03:31:09.959Z,15.60
2017-12-28T03:33:38.105Z,17.15
2017-12-28T03:36:06.236Z,14.48
2017-12-28T03:38:34.402Z,15.73
2017-12-28T03:41:02.538Z,15.05
2017-12-28T03:43:30.706Z,14.40
2017-12-28T03:45:58.840Z,15.63
2017-12-28T03:48:27.013Z,16.30
2017-12-28T03:50:55.142Z,16.73
2017-12-28T03:53:23.298Z,17.02
2017-12-28T03:55:51.434Z,17.42
2017-12-28T03:58:19.585Z,18.10
2017-12-28T04:00:47.717Z,17.12
2017-12-28T04:03:16.613Z,16.17
2017-12-28T04:05:44.781Z,16.30
2017-12-28T04:08:13.670Z,18.05
2017-12-28T04:10:41.833Z,16.48
2017-12-28T04:13:10.737Z,18.17
2017-12-28T04:15:38.912Z,16.37
2017-12-28T04:18:07.047Z,16.20
2017-12-28T04:20:35.206Z,18.70
2017-12-28T04:23:03.332Z,15.75
2017-12-28T04:25:31.509Z,16.70
2017-12-28T04:28:00.410Z,16.02
2017-12-28T04:30:28.569Z,16.12
2017-12-28T04:32:57.469Z,17.33
2017-12-28T04:35:25.637Z,16.83
2017-12-28T04:37:53.773Z,16.60
2017-12-28T04:40:21.925Z,17.48
2017-12-28T04:42:50.061Z,18.12
2017-12-28T04:45:18.213Z,16.10
2017-12-28T04:47:47.112Z,18.23
2017-12-28T04:50:15.266Z,17.58
2017-12-28T04:52:43.394Z,17.33
2017-12-28T04:55:11.550Z,17.45
2017-12-28T04:57:39.689Z,19.27
2017-12-28T05:00:07.821Z,16.98
2017-12-28T05:02:35.973Z,16.52
2017-12-28T05:05:04.104Z,15.75
2017-12-28T05:07:32.278Z,18.33
2017-12-28T05:10:00.407Z,18.12
2017-12-28T05:12:28.561Z,18.08
2017-12-28T05:14:56.689Z,17.30
2017-12-28T05:17:24.840Z,16.52
2017-12-28T05:19:52.973Z,18.35
2017-12-28T05:22:21.125Z,16.80
2017-12-28T05:24:49.258Z,17.08
2017-12-28T05:27:17.416Z,18.45
2017-12-28T05:29:45.546Z,17.42
2017-12-28T05:32:13.710Z,17.23
2017-12-28T05:34:41.842Z,18.35
2017-12-28T05:37:09.990Z,17.05
2017-12-28T05:39:38.115Z,17.12
2017-12-28T05:42:06.264Z,18.80
2017-12-28T05:44:34.397Z,19.70
2017-12-28T05:47:03.338Z,17.42
2017-12-28T05:49:31.469Z,18.60
2017-12-28T05:52:00.400Z,20.15
2017-12-28T05:54:28.532Z,19.73
2017-12-28T05:56:56.665Z,18.30
2017-12-28T05:59:24.816Z,17.27
2017-12-28T06:01:52.948Z,18.52
2017-12-28T06:04:21.092Z,18.55
2017-12-28T06:06:49.224Z,18.98
2017-12-28T06:09:17.376Z,18.33
2017-12-28T06:11:45.514Z,17.60
2017-12-28T06:14:13.671Z,19.98
2017-12-28T06:16:41.801Z,19.10
2017-12-28T06:19:09.963Z,18.98
2017-12-28T06:21:38.090Z,19.23
2017-12-28T06:24:06.258Z,19.48
2017-12-28T06:26:34.390Z,20.35
2017-12-28T06:29:02.540Z,19.62
2017-12-28T06:31:30.668Z,19.33
2017-12-28T06:33:58.825Z,19.27
2017-12-28T06:36:26.952Z,18.15
2017-12-28T06:38:55.114Z,20.02
2017-12-28T06:41:23.242Z,18.77
2017-12-28T06:43:51.403Z,17.73
2017-12-28T06:46:19.534Z,18.87
2017-12-28T06:48:47.693Z,19.37
2017-12-28T06:51:15.821Z,17.77
2017-12-28T06:53:43.950Z,18.75
2017-12-28T06:56:12.105Z,19.98
2017-12-28T06:58:40.237Z,19.15
2017-12-28T07:01:09.153Z,17.58
2017-12-28T07:03:37.277Z,18.85
2017-12-28T07:06:05.432Z,17.55
2017-12-28T07:08:33.562Z,17.27
2017-12-28T07:11:01.718Z,19.90
2017-12-28T07:13:29.845Z,19.85
2017-12-28T07:15:58.004Z,18.27
2017-12-28T07:18:26.138Z,19.08
2017-12-28T07:20:54.294Z,18.65
2017-12-28T07:23:22.439Z,19.73
2017-12-28T07:25:50.585Z,18.75
2017-12-28T07:28:18.708Z,21.15
2017-12-28T07:30:46.861Z,17.60
2017-12-28T07:33:14.997Z,17.40
2017-12-28T07:35:43.151Z,17.12
2017-12-28T07:38:12.049Z,19.23
2017-12-28T07:40:40.212Z,19.08
2017-12-28T07:43:09.115Z,17.40
2017-12-28T07:45:37.270Z,18.17
2017-12-28T07:48:06.161Z,19.27
2017-12-28T07:50:34.333Z,18.00
2017-12-28T07:53:03.224Z,18.98
2017-12-28T07:55:31.353Z,16.77
2017-12-28T07:57:59.517Z,19.48
2017-12-28T08:00:27.655Z,18.90
2017-12-28T08:02:55.802Z,18.80
2017-12-28T08:05:23.933Z,19.25
2017-12-28T08:07:52.080Z,17.40
2017-12-28T08:10:20.224Z,20.15
2017-12-28T08:12:48.377Z,17.90
2017-12-28T08:15:16.511Z,17.12
2017-12-28T08:17:44.667Z,18.98
2017-12-28T08:20:13.566Z,18.90
2017-12-28T08:22:41.727Z,18.15
2017-12-28T08:25:10.622Z,18.80
2017-12-28T08:27:38.777Z,17.85
2017-12-28T08:30:06.908Z,18.08
2017-12-28T08:32:35.056Z,16.83
2017-12-28T08:35:03.191Z,17.70
2017-12-28T08:37:31.349Z,17.48
2017-12-28T08:39:59.516Z,17.52
2017-12-28T08:42:27.681Z,17.90
2017-12-28T08:44:55.829Z,18.42
2017-12-28T08:47:24.021Z,15.82
2017-12-28T08:49:52.157Z,16.02
2017-12-28T08:52:20.330Z,17.08
2017-12-28T08:54:48.465Z,17.12
2017-12-28T08:57:16.613Z,17.55
2017-12-28T08:59:44.741Z,18.42
2017-12-28T09:02:12.911Z,17.90
2017-12-28T09:04:41.045Z,17.90
2017-12-28T09:07:09.222Z,19.02
2017-12-28T09:09:37.355Z,18.98
2017-12-28T09:12:05.524Z,18.73
2017-12-28T09:14:33.667Z,19.30
2017-12-28T09:17:01.833Z,21.10
2017-12-28T09:19:29.973Z,19.73
2017-12-28T09:21:58.141Z,18.73
2017-12-28T09:24:26.288Z,21.65
2017-12-28T09:26:55.213Z,21.58
2017-12-28T09:29:23.397Z,18.95
2017-12-28T09:31:51.561Z,20.27
2017-12-28T09:34:19.712Z,18.08
2017-12-28T09:36:47.886Z,20.23
2017-12-28T09:39:16.030Z,19.48
2017-12-28T09:41:44.164Z,17.65
2017-12-28T09:44:12.318Z,20.73
2017-12-28T09:46:40.449Z,19.35
2017-12-28T09:49:08.612Z,21.95
2017-12-28T09:51:36.750Z,20.25
2017-12-28T09:54:04.905Z,17.87
2017-12-28T09:56:33.042Z,20.00
2017-12-28T09:59:01.231Z,19.00
2017-12-28T10:01:29.388Z,19.12
2017-12-28T10:03:57.549Z,19.62
2017-12-28T10:06:25.673Z,18.85
2017-12-28T10:08:53.830Z,19.10
2017-12-28T10:11:21.966Z,19.42
2017-12-28T10:13:50.128Z,18.77
2017-12-28T10:16:20.642Z,17.23
2017-12-28T10:18:50.201Z,15.75
2017-12-28T10:21:18.400Z,15.30
2017-12-28T10:23:46.535Z,13.93
2017-12-28T10:26:20.116Z,12.37
2017-12-28T10:28:48.249Z,13.15
2017-12-28T10:31:16.401Z,11.90
2017-12-28T10:33:44.538Z,11.95
2017-12-28T10:36:12.695Z,10.40
2017-12-28T10:38:40.862Z,11.80
2017-12-28T10:41:08.999Z,10.63
2017-12-28T10:43:37.157Z,9.98
2017-12-28T10:46:05.295Z,9.77
2017-12-28T10:48:33.478Z,9.15
2017-12-28T10:51:01.664Z,8.52
2017-12-28T10:53:29.870Z,8.80
2017-12-28T10:55:58.026Z,9.13
2017-12-28T10:58:26.236Z,7.62
2017-12-28T11:00:54.375Z,6.87
2017-12-28T11:03:22.531Z,5.70
2017-12-28T11:05:50.726Z,5.55
2017-12-28T11:08:19.650Z,4.90
2017-12-28T11:10:47.785Z,4.30
2017-12-28T11:13:15.956Z,5.15
2017-12-28T11:15:44.076Z,2.95
2017-12-28T11:18:12.233Z,3.50
2017-12-28T11:20:40.366Z,2.50
2017-12-28T11:23:08.550Z,2.37
2017-12-28T11:25:36.669Z,1.95
2017-12-28T11:28:04.828Z,2.20
2017-12-28T11:30:32.969Z,1.60
2017-12-28T11:33:01.122Z,1.50
2017-12-28T11:35:29.257Z,2.08
2017-12-28T11:37:57.401Z,1.40
2017-12-28T11:40:25.533Z,1.87
2017-12-28T11:42:53.688Z,1.60
2017-12-28T11:45:21.815Z,1.85
2017-12-28T11:47:54.920Z,1.98
2017-12-28T11:50:23.055Z,1.67
2017-12-28T11:52:56.896Z,1.30
2017-12-28T11:55:31.472Z,1.50
2017-12-28T11:57:59.621Z,1.50
2017-12-28T12:00:27.754Z,1.85
2017-12-28T12:03:01.634Z,1.80
2017-12-28T12:08:34.376Z,1.42
2017-12-28T12:11:02.492Z,1.85
2017-12-28T12:13:30.657Z,1.40
2017-12-28T12:15:58.873Z,1.65
2017-12-28T12:18:27.043Z,1.80
2017-12-28T12:20:55.165Z,1.20
2017-12-28T12:23:23.322Z,2.60
2017-12-28T12:25:52.214Z,1.77
2017-12-28T12:28:20.356Z,1.90
2017-12-28T12:30:48.506Z,2.33
2017-12-28T12:33:16.682Z,1.70
2017-12-28T12:35:44.799Z,2.08
2017-12-28T12:38:12.946Z,2.83
2017-12-28T12:40:41.070Z,1.95
2017-12-28T12:43:09.215Z,1.73
2017-12-28T12:45:37.350Z,1.70
2017-12-28T12:48:05.507Z,1.75
2017-12-28T12:50:33.633Z,1.33
2017-12-28T12:53:02.549Z,3.00
2017-12-28T12:55:30.677Z,1.90
2017-12-28T12:57:58.825Z,2.40
2017-12-28T13:00:26.951Z,1.75
2017-12-28T13:02:55.093Z,2.00
2017-12-28T13:05:23.285Z,2.30
2017-12-28T13:07:52.214Z,1.95
2017-12-28T13:10:20.361Z,2.00
2017-12-28T13:12:49.251Z,3.30
2017-12-28T13:15:17.410Z,2.47
2017-12-28T13:17:45.530Z,2.33
2017-12-28T13:20:13.682Z,1.90
2017-12-28T13:22:41.812Z,2.30
2017-12-28T13:25:09.970Z,2.67
2017-12-28T13:27:38.107Z,2.25
2017-12-28T13:30:06.254Z,2.62
2017-12-28T13:32:34.383Z,2.30
2017-12-28T13:35:02.534Z,2.28
2017-12-28T13:37:30.661Z,2.22
2017-12-28T13:39:58.819Z,3.80
2017-12-28T13:42:27.802Z,2.45
2017-12-28T13:44:55.954Z,2.12
2017-12-28T13:47:24.074Z,2.05
2017-12-28T13:49:52.225Z,2.20
2017-12-28T13:52:20.351Z,2.08
2017-12-28T13:54:49.261Z,2.47
2017-12-28T13:57:17.385Z,3.20
2017-12-28T13:59:45.537Z,2.20
2017-12-28T14:02:13.661Z,2.10
2017-12-28T14:04:41.809Z,1.92
2017-12-28T14:07:09.933Z,2.67
2017-12-28T14:09:38.097Z,2.10
2017-12-28T14:12:06.227Z,2.47
2017-12-28T14:14:34.376Z,2.00
2017-12-28T14:17:02.494Z,2.78
2017-12-28T14:19:30.646Z,1.50
2017-12-28T14:21:58.814Z,2.47
2017-12-28T14:24:26.962Z,2.55
2017-12-28T14:26:55.088Z,2.30
2017-12-28T14:29:23.252Z,2.08
2017-12-28T14:31:52.143Z,2.65
2017-12-28T14:34:20.283Z,2.53
2017-12-28T14:36:48.410Z,2.70
2017-12-28T14:39:16.569Z,2.60
2017-12-28T14:41:44.689Z,2.72
2017-12-28T14:44:12.882Z,2.65
2017-12-28T14:46:41.003Z,2.58
2017-12-28T14:49:09.150Z,2.10
2017-12-28T14:51:37.270Z,2.70
2017-12-28T14:54:05.484Z,2.90
2017-12-28T14:56:33.602Z,3.33
2017-12-28T14:59:01.765Z,4.55
2017-12-28T15:01:29.889Z,6.65
2017-12-28T15:03:58.032Z,4.87
2017-12-28T15:06:26.169Z,2.62
2017-12-28T15:08:55.092Z,2.92
2017-12-28T15:11:23.241Z,2.60
2017-12-28T15:13:52.152Z,3.37
2017-12-28T15:16:20.273Z,3.00
2017-12-28T15:18:48.438Z,3.97
2017-12-28T15:21:19.950Z,2.72
2017-12-28T15:23:48.125Z,2.42
2017-12-28T15:26:16.253Z,2.30
2017-12-28T15:28:44.411Z,3.12
2017-12-28T15:31:12.529Z,2.70
2017-12-28T15:33:40.733Z,2.78
2017-12-28T15:36:08.862Z,3.50
2017-12-28T15:38:37.030Z,2.00
2017-12-28T15:41:05.201Z,2.62
2017-12-28T15:43:33.341Z,2.78
2017-12-28T15:46:01.513Z,2.80
2017-12-28T15:48:29.651Z,4.85
2017-12-28T15:50:57.818Z,2.95
2017-12-28T15:53:25.933Z,3.33
2017-12-28T15:55:54.120Z,1.83
2017-12-28T15:58:22.257Z,2.45
2017-12-28T16:00:50.413Z,3.05
2017-12-28T16:03:18.545Z,3.33
2017-12-28T16:05:46.705Z,3.22
2017-12-28T16:08:14.858Z,2.83
2017-12-28T16:10:43.007Z,2.83
2017-12-28T16:13:11.126Z,3.05
2017-12-28T16:15:39.282Z,3.08
2017-12-28T16:18:07.401Z,4.57
2017-12-28T16:20:35.576Z,3.20
2017-12-28T16:23:03.700Z,3.00
2017-12-28T16:25:31.859Z,2.70
2017-12-28T16:27:59.980Z,2.75
2017-12-28T16:30:28.126Z,4.05
2017-12-28T16:32:56.271Z,3.50
2017-12-28T16:35:24.401Z,3.35
2017-12-28T16:37:52.549Z,3.60
2017-12-28T16:40:20.677Z,3.00
2017-12-28T16:42:48.829Z,3.95
2017-12-28T16:45:16.981Z,4.57
2017-12-28T16:47:45.102Z,3.70
2017-12-28T16:50:14.017Z,3.45
2017-12-28T16:52:42.181Z,3.50
2017-12-28T16:55:10.329Z,3.35
2017-12-28T16:57:38.444Z,3.83
2017-12-28T17:00:06.600Z,3.58
2017-12-28T17:02:34.712Z,3.20
2017-12-28T17:05:02.946Z,3.55
2017-12-28T17:07:31.127Z,3.58
2017-12-28T17:09:59.281Z,2.90
2017-12-28T17:12:27.430Z,4.20
2017-12-28T17:14:55.593Z,3.67
2017-12-28T17:17:23.724Z,3.00
2017-12-28T17:19:51.872Z,3.30
2017-12-28T17:22:20.761Z,3.03
2017-12-28T17:24:48.915Z,3.95
2017-12-28T17:27:17.049Z,3.60
2017-12-28T17:29:45.215Z,2.90
2017-12-28T17:32:13.347Z,4.18
2017-12-28T17:34:41.581Z,3.65
2017-12-28T17:37:09.713Z,3.00
2017-12-28T17:39:37.876Z,3.20
2017-12-28T17:42:06.054Z,3.00
2017-12-28T17:44:34.973Z,2.67
2017-12-28T17:47:03.337Z,3.85
2017-12-28T17:49:31.677Z,3.00
2017-12-28T17:51:59.808Z,3.40
2017-12-28T17:54:27.963Z,3.35
2017-12-28T17:56:56.230Z,2.60
2017-12-28T17:59:25.225Z,3.20
2017-12-28T18:01:53.376Z,2.60
2017-12-28T18:04:21.538Z,2.87
2017-12-28T18:06:49.700Z,2.67
2017-12-28T18:09:17.833Z,2.62
2017-12-28T18:11:46.035Z,2.30
2017-12-28T18:14:14.207Z,3.15
2017-12-28T18:16:42.313Z,2.45
2017-12-28T18:19:10.485Z,2.72
2017-12-28T18:21:38.604Z,4.12
2017-12-28T18:24:06.874Z,3.87
2017-12-28T18:26:35.017Z,2.50
2017-12-28T18:29:03.933Z,2.80
2017-12-28T18:31:32.101Z,2.97
2017-12-28T18:34:00.266Z,3.10
2017-12-28T18:36:28.420Z,2.90
2017-12-28T18:38:56.660Z,2.70
2017-12-28T18:41:24.789Z,2.25
2017-12-28T18:43:52.989Z,2.55
2017-12-28T18:46:21.337Z,2.65
2017-12-28T18:48:49.498Z,2.70
2017-12-28T18:51:18.483Z,2.75
2017-12-28T18:53:46.629Z,3.80
2017-12-28T18:56:14.816Z,3.08
2017-12-28T18:58:43.010Z,3.05
2017-12-28T19:01:11.156Z,4.28
2017-12-28T19:03:39.289Z,3.30
2017-12-28T19:06:07.485Z,3.40
2017-12-28T19:08:35.601Z,3.47
2017-12-28T19:11:03.752Z,3.67
2017-12-28T19:13:31.877Z,4.07
2017-12-28T19:16:00.026Z,3.90
2017-12-28T19:18:28.154Z,3.40
2017-12-28T19:20:56.306Z,2.92
2017-12-28T19:23:24.669Z,3.20
2017-12-28T19:25:53.585Z,2.90
2017-12-28T19:28:21.711Z,3.90
2017-12-28T19:30:49.874Z,2.83
2017-12-28T19:33:17.997Z,4.55
2017-12-28T19:35:46.161Z,3.58
2017-12-28T19:38:14.310Z,3.97
2017-12-28T19:40:42.421Z,4.60
2017-12-28T19:43:10.600Z,3.00
2017-12-28T19:45:38.732Z,4.25
2017-12-28T19:48:06.881Z,3.95
2017-12-28T19:50:35.036Z,3.92
2017-12-28T19:53:03.181Z,4.00
2017-12-28T19:55:31.325Z,4.32
2017-12-28T19:57:59.501Z,4.10
2017-12-28T20:00:28.508Z,4.45
2017-12-28T20:02:56.688Z,6.18
2017-12-28T20:05:24.849Z,3.50
2017-12-28T20:07:53.070Z,4.75
2017-12-28T20:10:21.225Z,4.68
2017-12-28T20:12:49.385Z,4.12
2017-12-28T20:15:17.541Z,4.07
2017-12-28T20:17:46.497Z,3.20
2017-12-28T20:20:14.632Z,4.40
2017-12-28T20:22:42.817Z,4.57
2017-12-28T20:25:10.955Z,4.40
2017-12-28T20:27:39.114Z,4.30
2017-12-28T20:30:07.236Z,4.43
2017-12-28T20:32:35.477Z,3.97
2017-12-28T20:35:03.753Z,3.85
2017-12-28T20:37:31.949Z,4.05
2017-12-28T20:40:00.140Z,5.03
2017-12-28T20:42:28.386Z,4.28
2017-12-28T20:44:56.529Z,4.12
2017-12-28T20:47:24.660Z,3.85
2017-12-28T20:49:52.813Z,4.65
2017-12-28T20:52:20.981Z,4.55
2017-12-28T20:54:49.107Z,4.62
2017-12-28T20:57:17.265Z,4.15
2017-12-28T20:59:45.436Z,3.92
2017-12-28T21:02:13.591Z,5.28
2017-12-28T21:04:41.814Z,4.85
2017-12-28T21:07:09.974Z,4.55
2017-12-28T21:09:38.112Z,4.00
2017-12-28T21:12:06.291Z,4.95
2017-12-28T21:14:34.419Z,4.07
2017-12-28T21:17:02.569Z,4.18
2017-12-28T21:19:30.745Z,4.95
2017-12-28T21:21:58.878Z,4.45
2017-12-28T21:24:27.057Z,4.43
2017-12-28T21:26:55.257Z,4.95
2017-12-28T21:29:23.553Z,4.60
2017-12-28T21:31:51.749Z,4.37
2017-12-28T21:34:20.730Z,4.15
2017-12-28T21:36:48.871Z,4.78
2017-12-28T21:39:17.034Z,5.75
2017-12-28T21:41:45.241Z,5.45
2017-12-28T21:44:13.398Z,5.78
2017-12-28T21:46:41.617Z,5.85
2017-12-28T21:49:09.809Z,4.90
2017-12-28T21:51:37.995Z,4.85
2017-12-28T21:54:06.191Z,5.68
2017-12-28T21:56:41.765Z,4.70
2017-12-28T21:59:09.922Z,5.47
2017-12-28T22:01:38.054Z,5.40
2017-12-28T22:04:06.224Z,4.95
2017-12-28T22:06:35.118Z,6.30
2017-12-28T22:09:03.285Z,5.62
2017-12-28T22:11:32.226Z,4.85
2017-12-28T22:14:00.433Z,6.30
2017-12-28T22:16:28.558Z,5.45
2017-12-28T22:18:56.718Z,5.40
2017-12-28T22:21:24.903Z,5.45
2017-12-28T22:23:53.099Z,5.35
2017-12-28T22:26:21.225Z,5.40
2017-12-28T22:28:49.373Z,6.30
2017-12-28T22:31:17.505Z,6.50
2017-12-28T22:33:45.692Z,5.68
2017-12-28T22:36:13.808Z,5.60
2017-12-28T22:38:41.985Z,6.12
2017-12-28T22:41:10.870Z,6.68
2017-12-28T22:43:39.037Z,6.37
2017-12-28T22:46:07.923Z,6.12
2017-12-28T22:48:36.082Z,5.62
2017-12-28T22:51:04.239Z,6.80
2017-12-28T22:53:32.388Z,6.47
2017-12-28T22:56:00.538Z,6.07
2017-12-28T22:58:28.685Z,6.80
2017-12-28T23:00:56.814Z,6.45
2017-12-28T23:03:24.968Z,5.93
2017-12-28T23:05:53.099Z,6.55
2017-12-28T23:08:21.307Z,7.10
2017-12-28T23:10:50.566Z,8.75
2017-12-28T23:13:18.783Z,7.82
2017-12-28T23:15:46.910Z,7.43
2017-12-28T23:18:15.087Z,6.30
2017-12-28T23:20:43.219Z,6.47
2017-12-28T23:23:11.417Z,5.50
2017-12-28T23:25:39.559Z,6.97
2017-12-28T23:28:07.725Z,6.37
2017-12-28T23:30:35.851Z,5.90
2017-12-28T23:33:04.050Z,6.25
2017-12-28T23:35:32.173Z,6.43
2017-12-28T23:38:00.346Z,6.25
2017-12-28T23:40:28.467Z,5.57
2017-12-28T23:42:56.617Z,6.10
2017-12-28T23:45:24.738Z,5.50
2017-12-28T23:47:52.867Z,6.00
2017-12-28T23:50:21.059Z,5.93
2017-12-28T23:52:49.200Z,5.60
2017-12-28T23:55:17.359Z,5.10
2017-12-28T23:57:45.477Z,5.75
